createdAt,value
2023-03-12T00:00:15.947Z,9.05
2023-03-12T00:02:46.769Z,9.14
2023-03-12T00:05:17.412Z,9.23
2023-03-12T00:07:49.179Z,9.32
2023-03-12T00:10:20.277Z,9.40
2023-03-12T00:12:53.406Z,9.48
2023-03-12T00:15:23.935Z,9.55
2023-03-12T00:17:55.290Z,9.59
2023-03-12T00:20:26.550Z,9.62
2023-03-12T00:22:56.070Z,9.65
2023-03-12T00:25:26.612Z,9.66
2023-03-12T00:27:57.460Z,9.67
2023-03-12T00:30:29.265Z,9.67
2023-03-12T00:33:03.795Z,9.65
2023-03-12T00:35:32.783Z,9.62
2023-03-12T00:37:59.737Z,9.58
2023-03-12T00:40:26.900Z,9.55
2023-03-12T00:42:53.729Z,9.51
2023-03-12T00:45:20.701Z,9.49
2023-03-12T00:47:47.618Z,9.47
2023-03-12T00:50:14.542Z,9.44
2023-03-12T00:52:41.493Z,9.42
2023-03-12T00:55:08.782Z,9.42
2023-03-12T00:57:36.024Z,9.41
2023-03-12T01:00:09.312Z,9.41
2023-03-12T01:02:38.138Z,9.40
2023-03-12T01:05:07.766Z,9.41
2023-03-12T01:07:35.784Z,9.42
2023-03-12T01:10:03.950Z,9.41
2023-03-12T01:12:31.989Z,9.41
2023-03-12T01:14:58.915Z,9.39
2023-03-12T01:17:25.806Z,9.36
2023-03-12T01:19:52.661Z,9.34
2023-03-12T01:22:19.500Z,9.32
2023-03-12T01:24:46.771Z,9.29
2023-03-12T01:27:13.746Z,9.28
2023-03-12T01:29:41.399Z,9.25
2023-03-12T01:32:08.250Z,9.23
2023-03-12T01:34:35.133Z,9.22
2023-03-12T01:37:02.115Z,9.21
2023-03-12T01:39:29.365Z,9.20
2023-03-12T01:41:56.491Z,9.20
2023-03-12T01:44:23.400Z,9.18
2023-03-12T01:46:50.281Z,9.17
2023-03-12T01:49:33.608Z,9.15
2023-03-12T01:52:13.273Z,9.14
2023-03-12T01:54:57.289Z,9.12
2023-03-12T01:57:34.400Z,9.11
2023-03-12T02:00:08.396Z,9.10
2023-03-12T02:02:44.017Z,9.09
2023-03-12T02:05:19.972Z,9.08
2023-03-12T02:07:48.255Z,9.07
2023-03-12T02:10:16.633Z,9.06
2023-03-12T02:12:44.364Z,9.05
2023-03-12T02:15:11.858Z,9.05
2023-03-12T02:17:40.604Z,9.04
2023-03-12T02:20:27.628Z,9.04
2023-03-12T02:23:06.495Z,9.04
2023-03-12T02:25:43.257Z,9.05
2023-03-12T02:28:14.323Z,9.08
2023-03-12T02:30:51.077Z,9.10
2023-03-12T02:33:23.920Z,9.12
2023-03-12T02:35:52.247Z,9.13
2023-03-12T02:38:40.345Z,9.13
2023-03-12T02:41:23.368Z,9.13
2023-03-12T02:44:16.165Z,9.11
2023-03-12T02:46:48.424Z,9.09
2023-03-12T02:49:21.496Z,9.06
2023-03-12T02:51:49.625Z,9.04
2023-03-12T02:54:18.571Z,9.03
2023-03-12T02:56:46.367Z,9.01
2023-03-12T02:59:14.738Z,9.02
2023-03-12T03:01:43.189Z,9.02
2023-03-12T03:04:11.836Z,9.02
2023-03-12T03:06:43.231Z,9.00
2023-03-12T03:09:10.453Z,9.00
2023-03-12T03:11:37.430Z,8.97
2023-03-12T03:14:06.421Z,8.96
2023-03-12T03:16:34.272Z,8.95
2023-03-12T03:19:02.310Z,8.94
2023-03-12T03:21:29.465Z,8.94
2023-03-12T03:23:59.130Z,8.93
2023-03-12T03:26:26.614Z,8.94
2023-03-12T03:28:53.571Z,8.93
2023-03-12T03:31:20.983Z,8.93
2023-03-12T03:33:48.700Z,8.92
2023-03-12T03:36:16.598Z,8.92
2023-03-12T03:38:50.069Z,8.92
2023-03-12T03:41:19.674Z,8.93
2023-03-12T03:43:48.876Z,8.93
2023-03-12T03:46:17.699Z,8.93
2023-03-12T03:48:47.896Z,8.93
2023-03-12T03:51:15.463Z,8.93
2023-03-12T03:53:46.121Z,8.93
2023-03-12T03:56:15.723Z,8.93
2023-03-12T03:58:51.789Z,8.93
2023-03-12T04:01:20.462Z,8.93
2023-03-12T04:03:47.724Z,8.93
2023-03-12T04:06:14.561Z,8.93
2023-03-12T04:08:42.403Z,8.94
2023-03-12T04:11:16.174Z,8.94
2023-03-12T04:13:44.440Z,8.95
2023-03-12T04:16:12.863Z,8.96
2023-03-12T04:18:42.141Z,8.96
2023-03-12T04:21:12.815Z,8.95
2023-03-12T04:23:41.526Z,8.94
2023-03-12T04:26:09.368Z,8.93
2023-03-12T04:28:41.317Z,8.92
2023-03-12T04:31:10.517Z,8.89
2023-03-12T04:33:40.872Z,8.87
2023-03-12T04:36:08.972Z,8.87
2023-03-12T04:38:37.525Z,8.87
2023-03-12T04:41:08.265Z,8.85
2023-03-12T04:43:37.034Z,8.84
2023-03-12T04:46:05.617Z,8.81
2023-03-12T04:48:35.477Z,8.78
2023-03-12T04:51:03.645Z,8.76
2023-03-12T04:53:35.765Z,8.74
2023-03-12T04:56:03.258Z,8.73
2023-03-12T04:58:30.699Z,8.73
2023-03-12T05:00:58.499Z,8.75
2023-03-12T05:03:25.691Z,8.76
2023-03-12T05:05:53.697Z,8.77
2023-03-12T05:08:40.727Z,8.80
2023-03-12T05:11:07.847Z,8.82
2023-03-12T05:13:36.205Z,8.83
2023-03-12T05:16:03.792Z,8.84
2023-03-12T05:18:35.156Z,8.86
2023-03-12T05:21:20.719Z,8.89
2023-03-12T05:23:48.903Z,8.92
2023-03-12T05:26:20.989Z,8.95
2023-03-12T05:28:49.177Z,8.98
2023-03-12T05:31:17.625Z,9.00
2023-03-12T05:33:47.049Z,9.01
2023-03-12T05:36:14.891Z,9.01
2023-03-12T05:38:44.627Z,9.00
2023-03-12T05:41:28.374Z,9.00
2023-03-12T05:44:02.469Z,8.99
2023-03-12T05:46:30.050Z,8.99
2023-03-12T05:48:57.877Z,8.98
2023-03-12T05:51:25.423Z,8.99
2023-03-12T05:53:52.898Z,9.00
2023-03-12T05:56:19.991Z,9.01
2023-03-12T05:58:49.441Z,9.02
2023-03-12T06:01:27.835Z,9.04
2023-03-12T06:03:56.717Z,9.05
2023-03-12T06:06:25.377Z,9.06
2023-03-12T06:08:52.832Z,9.07
2023-03-12T06:11:20.293Z,9.09
2023-03-12T06:13:48.286Z,9.11
2023-03-12T06:16:20.450Z,9.11
2023-03-12T06:18:48.868Z,9.11
2023-03-12T06:21:23.632Z,9.11
2023-03-12T06:23:51.946Z,9.09
2023-03-12T06:26:23.161Z,9.07
2023-03-12T06:28:52.625Z,9.06
2023-03-12T06:31:20.620Z,9.04
2023-03-12T06:33:48.835Z,9.04
2023-03-12T06:36:17.074Z,9.02
2023-03-12T06:38:43.936Z,8.98
2023-03-12T06:41:17.350Z,8.94
2023-03-12T06:43:45.407Z,8.90
2023-03-12T06:46:21.281Z,8.87
2023-03-12T06:48:49.234Z,8.86
2023-03-12T06:51:17.692Z,8.85
2023-03-12T06:53:46.061Z,8.87
2023-03-12T06:56:15.508Z,8.89
2023-03-12T06:58:42.693Z,8.91
2023-03-12T07:01:10.136Z,8.93
2023-03-12T07:03:37.299Z,8.95
2023-03-12T07:06:04.677Z,8.97
2023-03-12T07:08:32.828Z,9.00
2023-03-12T07:11:01.795Z,9.04
2023-03-12T07:13:30.234Z,9.07
2023-03-12T07:16:01.727Z,9.10
2023-03-12T07:18:29.391Z,9.15
2023-03-12T07:20:56.823Z,9.21
2023-03-12T07:23:24.067Z,9.25
2023-03-12T07:25:52.502Z,9.28
2023-03-12T07:28:21.319Z,9.33
2023-03-12T07:30:50.109Z,9.39
2023-03-12T07:33:20.220Z,9.48
2023-03-12T07:35:51.008Z,9.58
2023-03-12T07:38:20.875Z,9.66
2023-03-12T07:40:52.824Z,9.70
2023-03-12T07:43:23.497Z,9.74
2023-03-12T07:46:04.771Z,9.76
2023-03-12T07:48:34.813Z,9.79
2023-03-12T07:51:02.080Z,9.82
2023-03-12T07:53:29.039Z,9.83
2023-03-12T07:56:05.065Z,9.86
2023-03-12T07:58:35.794Z,9.92
2023-03-12T08:01:08.017Z,10.01
2023-03-12T08:03:37.748Z,10.03
2023-03-12T08:06:08.465Z,10.01
2023-03-12T08:08:41.333Z,9.98
2023-03-12T08:11:09.226Z,9.92
2023-03-12T08:13:50.459Z,9.85
2023-03-12T08:16:18.085Z,9.83
2023-03-12T08:18:46.669Z,9.84
2023-03-12T08:21:17.194Z,9.85
2023-03-12T08:23:46.385Z,9.84
2023-03-12T08:26:13.335Z,9.81
2023-03-12T08:28:40.699Z,9.79
2023-03-12T08:31:09.583Z,9.80
2023-03-12T08:33:44.409Z,9.79
2023-03-12T08:36:12.866Z,9.82
2023-03-12T08:38:41.494Z,9.89
2023-03-12T08:41:16.181Z,9.95
2023-03-12T08:43:46.663Z,10.00
2023-03-12T08:46:15.310Z,10.04
2023-03-12T08:48:44.076Z,10.05
2023-03-12T08:51:14.863Z,10.08
2023-03-12T08:53:45.545Z,10.12
2023-03-12T08:56:19.430Z,10.16
2023-03-12T08:58:52.589Z,10.20
2023-03-12T09:01:23.168Z,10.16
2023-03-12T09:03:54.017Z,10.09
2023-03-12T09:06:21.683Z,10.03
2023-03-12T09:08:51.028Z,10.00
2023-03-12T09:11:18.193Z,10.00
2023-03-12T09:14:08.487Z,10.08
2023-03-12T09:16:35.684Z,10.26
2023-03-12T09:19:03.478Z,10.48
2023-03-12T09:21:31.268Z,10.72
2023-03-12T09:23:58.490Z,10.92
2023-03-12T09:26:25.562Z,11.13
2023-03-12T09:28:53.053Z,11.29
2023-03-12T09:31:21.256Z,11.38
2023-03-12T09:33:48.165Z,11.39
2023-03-12T09:36:15.163Z,11.34
2023-03-12T09:38:42.118Z,11.27
2023-03-12T09:41:29.839Z,11.22
2023-03-12T09:44:28.117Z,11.10
2023-03-12T09:47:03.060Z,10.98
2023-03-12T09:49:40.737Z,10.91
2023-03-12T09:52:22.193Z,10.88
2023-03-12T09:55:14.307Z,10.86
2023-03-12T09:57:51.255Z,10.84
2023-03-12T10:00:30.418Z,10.86
2023-03-12T10:03:13.852Z,10.88
2023-03-12T10:06:21.004Z,10.89
2023-03-12T10:08:59.097Z,10.88
2023-03-12T10:11:54.814Z,10.83
2023-03-12T10:14:48.023Z,10.80
2023-03-12T10:17:41.043Z,10.84
2023-03-12T10:20:19.813Z,10.98
2023-03-12T10:23:06.584Z,11.22
2023-03-12T10:25:52.958Z,11.37
2023-03-12T10:28:30.625Z,11.32
2023-03-12T10:31:03.688Z,11.20
2023-03-12T10:33:47.373Z,11.08
2023-03-12T10:36:21.813Z,10.98
2023-03-12T10:38:49.411Z,10.90
2023-03-12T10:41:29.868Z,10.85
2023-03-12T10:44:05.997Z,10.85
2023-03-12T10:46:43.549Z,10.81
2023-03-12T10:49:36.014Z,10.69
2023-03-12T10:52:17.712Z,10.57
2023-03-12T10:54:52.435Z,10.53
2023-03-12T10:57:20.834Z,10.46
2023-03-12T10:59:49.566Z,10.30
2023-03-12T11:02:28.874Z,10.02
2023-03-12T11:05:00.409Z,9.69
2023-03-12T11:07:35.664Z,9.48
2023-03-12T11:10:37.115Z,9.33
2023-03-12T11:13:27.500Z,9.19
2023-03-12T11:16:20.083Z,9.08
2023-03-12T11:18:59.603Z,8.98
2023-03-12T11:21:28.250Z,8.92
2023-03-12T11:24:00.444Z,8.88
2023-03-12T11:26:37.418Z,8.86
2023-03-12T11:29:17.288Z,8.90
2023-03-12T11:32:00.320Z,8.99
2023-03-12T11:34:31.083Z,9.09
2023-03-12T11:37:03.958Z,9.15
2023-03-12T11:40:09.590Z,9.16
2023-03-12T11:43:07.871Z,9.11
2023-03-12T11:46:35.996Z,9.03
2023-03-12T11:49:17.839Z,9.06
2023-03-12T11:52:03.555Z,9.17
2023-03-12T11:54:51.878Z,9.18
2023-03-12T11:57:29.930Z,9.10
2023-03-12T12:00:11.897Z,9.12
2023-03-12T12:02:59.856Z,9.22
2023-03-12T12:05:52.792Z,9.32
2023-03-12T12:08:25.725Z,9.40
2023-03-12T12:10:57.010Z,9.49
2023-03-12T12:13:44.786Z,9.53
2023-03-12T12:16:30.488Z,9.46
2023-03-12T12:19:00.515Z,9.46
2023-03-12T12:21:46.312Z,9.58
2023-03-12T12:24:42.202Z,9.67
2023-03-12T12:27:24.997Z,9.75
2023-03-12T12:30:05.009Z,9.71
2023-03-12T12:32:40.368Z,9.51
2023-03-12T12:35:40.166Z,9.27
2023-03-12T12:38:43.875Z,9.08
2023-03-12T12:41:18.177Z,8.95
2023-03-12T12:44:02.223Z,8.85
2023-03-12T12:46:34.494Z,8.84
2023-03-12T12:49:46.706Z,8.85
2023-03-12T12:52:19.626Z,8.86
2023-03-12T13:00:10.487Z,8.80
2023-03-12T13:02:40.476Z,8.76
2023-03-12T13:05:44.880Z,8.74
2023-03-12T13:08:56.073Z,8.73
2023-03-12T13:11:29.561Z,8.73
2023-03-12T13:14:03.708Z,8.74
2023-03-12T13:16:32.946Z,8.68
2023-03-12T13:19:20.858Z,8.59
2023-03-12T13:22:10.242Z,8.52
2023-03-12T13:24:59.620Z,8.42
2023-03-12T13:27:40.484Z,8.20
2023-03-12T13:30:27.709Z,7.98
2023-03-12T13:32:57.391Z,7.82
2023-03-12T13:35:28.886Z,7.70
2023-03-12T13:37:56.375Z,7.61
2023-03-12T13:40:29.930Z,7.52
2023-03-12T13:43:16.791Z,7.42
2023-03-12T13:46:00.658Z,7.36
2023-03-12T13:48:34.011Z,7.33
2023-03-12T13:51:24.900Z,7.29
2023-03-12T13:53:58.976Z,7.17
2023-03-12T13:56:32.797Z,7.05
2023-03-12T13:59:07.201Z,6.89
2023-03-12T14:01:40.809Z,6.73
2023-03-12T14:04:18.564Z,6.60
2023-03-12T14:07:17.728Z,6.50
2023-03-12T14:10:16.906Z,6.36
2023-03-12T14:12:59.943Z,6.24
2023-03-12T14:15:47.972Z,6.18
2023-03-12T14:18:30.547Z,6.12
2023-03-12T14:21:03.069Z,6.07
2023-03-12T14:23:40.605Z,6.02
2023-03-12T14:26:09.059Z,6.00
2023-03-12T14:28:41.713Z,5.94
2023-03-12T14:31:16.376Z,5.84
2023-03-12T14:34:06.067Z,5.74
2023-03-12T14:39:56.001Z,5.55
2023-03-12T14:42:29.306Z,5.47
2023-03-12T14:45:17.191Z,5.41
2023-03-12T14:47:57.473Z,5.32
2023-03-12T14:50:39.844Z,5.25
2023-03-12T14:53:24.052Z,5.19
2023-03-12T14:56:11.751Z,5.14
2023-03-12T14:58:46.919Z,5.11
2023-03-12T15:01:32.449Z,5.06
2023-03-12T15:04:07.840Z,5.04
2023-03-12T15:07:03.841Z,5.04
2023-03-12T15:09:44.149Z,5.02
2023-03-12T15:12:21.857Z,4.98
2023-03-12T15:15:05.118Z,4.95
2023-03-12T15:17:41.087Z,4.93
2023-03-12T15:20:15.321Z,4.91
2023-03-12T15:22:43.044Z,4.87
2023-03-12T15:25:41.867Z,4.83
2023-03-12T15:28:14.881Z,4.80
2023-03-12T15:30:45.671Z,4.73
2023-03-12T15:33:18.020Z,4.69
2023-03-12T15:36:23.840Z,4.65
2023-03-12T15:38:54.503Z,4.59
2023-03-12T15:41:27.869Z,4.58
2023-03-12T15:43:58.178Z,4.58
2023-03-12T15:46:26.955Z,4.56
2023-03-12T15:48:59.597Z,4.54
2023-03-12T15:51:34.416Z,4.53
2023-03-12T15:54:26.914Z,4.48
2023-03-12T15:57:25.379Z,4.43
2023-03-12T16:00:14.364Z,4.28
2023-03-12T16:02:48.967Z,4.11
2023-03-12T16:05:17.051Z,4.00
2023-03-12T16:07:44.262Z,3.93
2023-03-12T16:10:17.340Z,3.86
2023-03-12T16:12:46.176Z,3.79
2023-03-12T16:15:33.700Z,3.71
2023-03-12T16:18:03.911Z,3.63
2023-03-12T16:20:31.537Z,3.54
2023-03-12T16:23:01.130Z,3.47
2023-03-12T16:25:28.741Z,3.39
2023-03-12T16:28:00.173Z,3.34
2023-03-12T16:30:35.333Z,3.31
2023-03-12T16:33:08.621Z,3.28
2023-03-12T16:35:37.918Z,3.26
2023-03-12T16:38:06.769Z,3.22
2023-03-12T16:40:49.141Z,3.18
2023-03-12T16:43:21.357Z,3.16
2023-03-12T16:45:50.226Z,3.16
2023-03-12T16:48:21.132Z,3.16
2023-03-12T16:50:50.774Z,3.15
2023-03-12T16:53:22.183Z,3.13
2023-03-12T16:55:56.557Z,3.13
2023-03-12T16:58:27.934Z,3.12
2023-03-12T17:00:56.914Z,3.09
2023-03-12T17:03:28.235Z,3.06
2023-03-12T17:06:06.578Z,3.02
2023-03-12T17:08:35.440Z,2.97
2023-03-12T17:11:24.874Z,2.94
2023-03-12T17:13:58.633Z,2.89
2023-03-12T17:16:27.433Z,2.86
2023-03-12T17:18:56.873Z,2.87
2023-03-12T17:21:24.341Z,2.86
2023-03-12T17:23:58.834Z,2.86
2023-03-12T17:26:25.963Z,2.85
2023-03-12T17:28:53.601Z,2.85
2023-03-12T17:31:24.206Z,2.85
2023-03-12T17:33:51.517Z,2.83
2023-03-12T17:36:20.209Z,2.81
2023-03-12T17:38:49.666Z,2.76
2023-03-12T17:41:25.971Z,2.72
2023-03-12T17:43:59.283Z,2.69
2023-03-12T17:46:26.477Z,2.64
2023-03-12T17:48:54.500Z,2.61
2023-03-12T17:51:22.318Z,2.56
2023-03-12T17:53:49.437Z,2.51
2023-03-12T17:56:17.690Z,2.46
2023-03-12T17:58:48.193Z,2.43
2023-03-12T18:01:16.456Z,2.41
2023-03-12T18:03:45.088Z,2.39
2023-03-12T18:06:12.501Z,2.35
2023-03-12T18:08:40.232Z,2.33
2023-03-12T18:11:07.179Z,2.31
2023-03-12T18:13:39.408Z,2.30
2023-03-12T18:16:08.954Z,2.29
2023-03-12T18:18:39.265Z,2.28
2023-03-12T18:21:15.450Z,2.28
2023-03-12T18:23:43.540Z,2.28
2023-03-12T18:26:18.738Z,2.28
2023-03-12T18:28:45.697Z,2.29
2023-03-12T18:31:12.814Z,2.29
2023-03-12T18:33:41.421Z,2.30
2023-03-12T18:36:08.860Z,2.30
2023-03-12T18:38:53.031Z,2.30
2023-03-12T18:41:20.054Z,2.29
2023-03-12T18:43:46.940Z,2.27
2023-03-12T18:46:14.116Z,2.26
2023-03-12T18:48:44.201Z,2.27
2023-03-12T18:51:11.415Z,2.27
2023-03-12T18:53:38.373Z,2.27
2023-03-12T18:56:14.136Z,2.27
2023-03-12T18:58:41.768Z,2.25
2023-03-12T19:01:08.665Z,2.23
2023-03-12T19:03:36.716Z,2.23
2023-03-12T19:06:07.358Z,2.23
2023-03-12T19:08:39.855Z,2.21
2023-03-12T19:11:13.016Z,2.20
2023-03-12T19:13:40.047Z,2.18
2023-03-12T19:16:09.717Z,2.16
2023-03-12T19:18:38.384Z,2.16
2023-03-12T19:21:09.259Z,2.15
2023-03-12T19:23:36.247Z,2.14
2023-03-12T19:26:04.813Z,2.12
2023-03-12T19:28:32.107Z,2.09
2023-03-12T19:31:01.176Z,2.05
2023-03-12T19:33:28.715Z,2.02
2023-03-12T19:35:57.336Z,2.00
2023-03-12T19:38:25.185Z,1.98
2023-03-12T19:40:55.582Z,1.95
2023-03-12T19:43:24.261Z,1.93
2023-03-12T19:45:54.093Z,1.89
2023-03-12T19:48:22.402Z,1.79
2023-03-12T19:50:50.986Z,1.69
2023-03-12T19:53:20.143Z,1.60
2023-03-12T19:55:50.227Z,1.52
2023-03-12T19:58:17.290Z,1.47
2023-03-12T20:00:44.353Z,1.43
2023-03-12T20:03:12.737Z,1.39
2023-03-12T20:05:45.128Z,1.34
2023-03-12T20:08:12.497Z,1.31
2023-03-12T20:10:41.401Z,1.31
2023-03-12T20:13:17.070Z,1.32
2023-03-12T20:15:46.353Z,1.32
2023-03-12T20:18:19.339Z,1.30
2023-03-12T20:20:48.750Z,1.26
2023-03-12T20:23:15.837Z,1.20
2023-03-12T20:25:46.918Z,1.12
2023-03-12T20:28:14.533Z,1.03
2023-03-12T20:30:45.283Z,0.95
2023-03-12T20:33:13.937Z,0.87
2023-03-12T20:35:40.948Z,0.80
2023-03-12T20:38:09.051Z,0.73
2023-03-12T20:40:36.213Z,0.65
2023-03-12T20:43:05.460Z,0.56
2023-03-12T20:45:34.184Z,0.48
2023-03-12T20:48:01.864Z,0.41
2023-03-12T20:50:28.951Z,0.34
2023-03-12T20:52:55.872Z,0.28
2023-03-12T20:55:23.029Z,0.23
2023-03-12T20:57:49.990Z,0.19
2023-03-12T21:00:21.036Z,0.16
2023-03-12T21:02:49.538Z,0.14
2023-03-12T21:05:16.589Z,0.11
2023-03-12T21:07:43.525Z,0.07
2023-03-12T21:10:10.992Z,0.03
2023-03-12T21:12:47.031Z,-0.04
2023-03-12T21:15:13.903Z,-0.10
2023-03-12T21:17:41.067Z,-0.16
2023-03-12T21:20:12.889Z,-0.22
2023-03-12T21:22:42.813Z,-0.26
2023-03-12T21:25:11.078Z,-0.30
2023-03-12T21:27:49.890Z,-0.31
2023-03-12T21:30:18.606Z,-0.35
2023-03-12T21:32:46.492Z,-0.36
2023-03-12T21:35:13.429Z,-0.38
2023-03-12T21:37:40.910Z,-0.40
2023-03-12T21:40:09.345Z,-0.42
2023-03-12T21:42:38.100Z,-0.44
2023-03-12T21:45:05.728Z,-0.49
2023-03-12T21:47:38.512Z,-0.50
2023-03-12T21:50:05.866Z,-0.53
2023-03-12T21:52:39.227Z,-0.55
2023-03-12T21:55:08.487Z,-0.57
2023-03-12T21:57:36.124Z,-0.58
2023-03-12T22:00:04.598Z,-0.59
2023-03-12T22:02:32.346Z,-0.58
2023-03-12T22:05:00.296Z,-0.56
2023-03-12T22:07:29.909Z,-0.52
2023-03-12T22:09:57.579Z,-0.51
2023-03-12T22:12:24.928Z,-0.50
2023-03-12T22:14:55.214Z,-0.49
2023-03-12T22:17:22.093Z,-0.51
2023-03-12T22:19:49.389Z,-0.52
2023-03-12T22:22:18.852Z,-0.54
2023-03-12T22:24:47.436Z,-0.57
2023-03-12T22:27:14.522Z,-0.61
2023-03-12T22:29:43.101Z,-0.63
2023-03-12T22:32:10.459Z,-0.65
2023-03-12T22:34:38.330Z,-0.65
2023-03-12T22:37:06.322Z,-0.66
2023-03-12T22:39:33.424Z,-0.67
2023-03-12T22:42:00.340Z,-0.67
2023-03-12T22:44:27.478Z,-0.68
2023-03-12T22:46:56.301Z,-0.70
2023-03-12T22:49:23.329Z,-0.73
2023-03-12T22:51:50.216Z,-0.77
2023-03-12T22:54:17.159Z,-0.81
2023-03-12T22:56:44.340Z,-0.83
2023-03-12T22:59:11.507Z,-0.85
2023-03-12T23:01:39.053Z,-0.88
2023-03-12T23:04:12.580Z,-0.92
2023-03-12T23:06:40.295Z,-0.96
2023-03-12T23:09:07.319Z,-1.00
2023-03-12T23:11:35.485Z,-1.04
2023-03-12T23:14:02.605Z,-1.06
2023-03-12T23:16:29.612Z,-1.06
2023-03-12T23:18:56.632Z,-1.07
2023-03-12T23:21:24.344Z,-1.08
2023-03-12T23:23:51.724Z,-1.09
2023-03-12T23:26:22.300Z,-1.12
2023-03-12T23:28:52.683Z,-1.13
2023-03-12T23:31:24.396Z,-1.16
2023-03-12T23:33:51.394Z,-1.19
2023-03-12T23:36:24.452Z,-1.21
2023-03-12T23:38:51.471Z,-1.24
2023-03-12T23:41:29.075Z,-1.26
2023-03-12T23:43:59.394Z,-1.29
2023-03-12T23:46:27.718Z,-1.31
2023-03-12T23:48:58.884Z,-1.33
2023-03-12T23:51:28.836Z,-1.35
2023-03-12T23:53:58.596Z,-1.35
2023-03-12T23:56:30.343Z,-1.36
2023-03-12T23:58:58.564Z,-1.38
